createdAt,value
2022-10-30T00:00:43.859Z,12.53
2022-10-30T00:11:18.945Z,12.54
2022-10-30T00:21:46.357Z,12.57
2022-10-30T00:32:13.839Z,12.54
2022-10-30T00:42:41.325Z,12.44
2022-10-30T00:53:12.135Z,12.37
2022-10-30T01:03:40.529Z,12.39
2022-10-30T01:14:11.315Z,12.35
2022-10-30T01:24:53.196Z,12.35
2022-10-30T01:35:25.271Z,12.34
2022-10-30T01:46:10.723Z,12.34
2022-10-30T01:56:46.204Z,12.34
2022-10-30T02:07:14.730Z,12.32
2022-10-30T02:17:42.754Z,12.39
2022-10-30T02:28:10.601Z,12.37
2022-10-30T02:38:38.497Z,12.27
2022-10-30T02:49:06.522Z,12.21
2022-10-30T02:59:34.489Z,12.10
2022-10-30T03:10:02.405Z,12.04
2022-10-30T03:20:30.388Z,11.99
2022-10-30T03:31:03.587Z,11.99
2022-10-30T03:41:31.758Z,12.04
2022-10-30T03:51:59.129Z,12.03
2022-10-30T04:02:26.447Z,12.06
2022-10-30T04:12:54.992Z,12.02
2022-10-30T04:23:23.279Z,12.02
2022-10-30T04:33:51.093Z,12.03
2022-10-30T04:44:18.402Z,12.01
2022-10-30T04:54:45.704Z,12.09
2022-10-30T05:05:13.181Z,12.14
2022-10-30T05:15:40.829Z,12.11
2022-10-30T05:26:08.248Z,12.09
2022-10-30T05:36:35.497Z,12.05
2022-10-30T05:47:02.763Z,12.05
2022-10-30T05:57:33.299Z,12.07
2022-10-30T06:08:00.569Z,12.04
2022-10-30T06:18:27.815Z,11.97
2022-10-30T06:28:55.160Z,11.93
2022-10-30T06:39:22.638Z,11.96
2022-10-30T06:49:49.905Z,12.07
2022-10-30T07:00:17.982Z,12.07
2022-10-30T07:10:45.451Z,12.09
2022-10-30T07:21:12.875Z,12.14
2022-10-30T07:31:49.558Z,12.33
2022-10-30T07:42:17.341Z,12.67
2022-10-30T07:52:44.721Z,13.02
2022-10-30T08:03:13.652Z,13.43
2022-10-30T08:13:41.166Z,13.84
2022-10-30T08:24:09.377Z,14.27
2022-10-30T08:34:36.628Z,14.64
2022-10-30T08:45:03.992Z,15.01
2022-10-30T08:55:31.469Z,15.40
2022-10-30T09:06:01.287Z,15.70
2022-10-30T09:16:28.681Z,16.01
2022-10-30T09:26:57.625Z,16.19
2022-10-30T09:37:25.150Z,16.39
2022-10-30T09:47:57.923Z,16.56
2022-10-30T09:58:35.472Z,16.64
2022-10-30T10:09:09.165Z,16.76
2022-10-30T10:19:42.816Z,16.93
2022-10-30T10:30:16.828Z,17.12
2022-10-30T10:40:55.359Z,17.34
2022-10-30T10:51:28.060Z,17.58
2022-10-30T11:02:01.506Z,17.81
2022-10-30T11:12:33.868Z,18.02
2022-10-30T11:23:03.744Z,18.22
2022-10-30T11:33:31.614Z,18.47
2022-10-30T11:43:59.142Z,18.68
2022-10-30T11:54:27.714Z,18.79
2022-10-30T12:04:55.812Z,18.87
2022-10-30T12:15:26.657Z,18.94
2022-10-30T12:25:56.817Z,18.92
2022-10-30T12:36:28.554Z,18.95
2022-10-30T12:47:02.321Z,19.05
2022-10-30T12:57:34.372Z,19.10
2022-10-30T13:08:18.772Z,19.12
2022-10-30T13:18:46.168Z,19.11
2022-10-30T13:29:23.186Z,19.10
2022-10-30T13:40:02.997Z,19.04
2022-10-30T13:50:46.680Z,18.93
2022-10-30T14:01:24.095Z,18.86
2022-10-30T14:11:53.757Z,18.82
2022-10-30T14:22:26.693Z,18.72
2022-10-30T14:32:54.683Z,18.61
2022-10-30T14:43:31.940Z,18.56
2022-10-30T14:54:07.583Z,18.51
2022-10-30T15:04:46.779Z,18.52
2022-10-30T15:15:18.678Z,18.53
2022-10-30T15:25:51.633Z,18.60
2022-10-30T15:36:22.063Z,18.58
2022-10-30T15:46:51.928Z,18.47
2022-10-30T16:08:16.684Z,18.43
2022-10-30T16:18:44.911Z,18.32
2022-10-30T16:29:24.293Z,18.21
2022-10-30T16:39:54.265Z,17.96
2022-10-30T16:50:22.607Z,17.83
2022-10-30T17:00:55.784Z,17.84
2022-10-30T17:11:37.089Z,17.81
2022-10-30T17:22:11.216Z,17.70
2022-10-30T17:32:46.815Z,17.60
2022-10-30T17:43:15.779Z,17.37
2022-10-30T17:53:43.507Z,16.98
2022-10-30T18:04:17.893Z,16.88
2022-10-30T18:14:48.269Z,16.73
2022-10-30T18:25:21.859Z,16.80
2022-10-30T18:35:49.380Z,16.65
2022-10-30T18:46:17.595Z,16.36
2022-10-30T18:56:45.116Z,16.11
2022-10-30T19:07:10.999Z,15.83
2022-10-30T19:17:38.370Z,15.66
2022-10-30T19:28:06.020Z,15.49
2022-10-30T19:38:34.006Z,15.32
2022-10-30T19:49:01.374Z,15.12
2022-10-30T19:59:28.986Z,14.93
2022-10-30T20:09:56.354Z,14.86
2022-10-30T20:20:26.403Z,14.80
2022-10-30T20:30:54.223Z,14.80
2022-10-30T20:41:23.845Z,14.74
2022-10-30T20:51:51.044Z,14.69
2022-10-30T21:02:18.404Z,14.58
2022-10-30T21:12:45.857Z,14.57
2022-10-30T21:23:13.734Z,14.70
2022-10-30T21:33:39.844Z,14.84
2022-10-30T21:44:07.517Z,14.98
2022-10-30T21:54:34.943Z,15.18
2022-10-30T22:05:02.341Z,15.21
2022-10-30T22:15:29.718Z,15.20
2022-10-30T22:26:01.365Z,15.29
2022-10-30T22:36:30.948Z,15.33
2022-10-30T22:46:58.314Z,15.39
2022-10-30T22:57:25.698Z,15.28
2022-10-30T23:07:54.596Z,15.17
2022-10-30T23:18:21.963Z,15.13
2022-10-30T23:28:50.812Z,15.04
2022-10-30T23:39:19.748Z,14.98
2022-10-30T23:49:47.202Z,15.06
